createdAt,value
2019-03-26T00:01:48.451Z,2.40
2019-03-26T00:04:18.884Z,2.13
2019-03-26T00:06:48.736Z,2.43
2019-03-26T00:09:20.746Z,1.70
2019-03-26T00:11:50.569Z,2.87
2019-03-26T00:14:20.554Z,1.93
2019-03-26T00:16:50.328Z,2.40
2019-03-26T00:19:20.420Z,3.13
2019-03-26T00:21:50.219Z,3.40
2019-03-26T00:24:20.218Z,2.40
2019-03-26T00:26:49.932Z,3.07
2019-03-26T00:29:19.986Z,5.73
2019-03-26T00:31:50.079Z,4.70
2019-03-26T00:34:21.377Z,2.77
2019-03-26T00:36:51.851Z,4.07
2019-03-26T00:39:21.541Z,4.83
2019-03-26T00:41:51.380Z,3.00
2019-03-26T00:44:21.491Z,2.47
2019-03-26T00:46:54.322Z,1.27
2019-03-26T00:49:24.085Z,2.27
2019-03-26T00:51:53.881Z,2.30
2019-03-26T00:54:23.867Z,2.20
2019-03-26T00:56:53.665Z,2.70
2019-03-26T00:59:23.761Z,3.63
2019-03-26T01:01:53.647Z,2.20
2019-03-26T01:04:32.664Z,3.83
2019-03-26T01:06:54.833Z,3.20
2019-03-26T01:09:24.603Z,3.27
2019-03-26T01:11:54.701Z,2.83
2019-03-26T01:14:24.433Z,2.63
2019-03-26T01:16:54.140Z,2.90
2019-03-26T01:19:24.540Z,1.33
2019-03-26T01:21:54.347Z,2.23
2019-03-26T01:24:24.059Z,2.47
2019-03-26T01:26:54.190Z,3.67
2019-03-26T01:29:25.056Z,2.67
2019-03-26T01:31:54.807Z,2.47
2019-03-26T01:34:25.268Z,2.70
2019-03-26T01:36:56.599Z,2.80
2019-03-26T01:39:26.401Z,4.03
2019-03-26T01:41:56.170Z,2.13
2019-03-26T01:44:26.240Z,2.70
2019-03-26T01:46:57.831Z,4.33
2019-03-26T01:49:27.579Z,3.30
2019-03-26T01:51:57.325Z,2.50
2019-03-26T01:54:27.058Z,3.90
2019-03-26T01:56:57.164Z,2.20
2019-03-26T01:59:26.856Z,2.50
2019-03-26T02:01:56.600Z,2.93
2019-03-26T02:04:26.693Z,1.60
2019-03-26T02:06:56.834Z,2.80
2019-03-26T02:09:26.931Z,2.47
2019-03-26T02:11:57.083Z,3.13
2019-03-26T02:14:26.815Z,2.27
2019-03-26T02:16:56.559Z,2.33
2019-03-26T02:19:26.368Z,3.43
2019-03-26T02:21:56.078Z,4.03
2019-03-26T02:24:25.841Z,2.80
2019-03-26T02:26:55.701Z,3.80
2019-03-26T02:29:28.631Z,2.97
2019-03-26T02:31:58.373Z,3.57
2019-03-26T02:34:28.446Z,3.50
2019-03-26T02:36:58.232Z,3.40
2019-03-26T02:39:28.273Z,3.00
2019-03-26T02:41:58.018Z,4.77
2019-03-26T02:44:28.413Z,2.50
2019-03-26T02:46:58.214Z,3.10
2019-03-26T02:49:28.402Z,3.00
2019-03-26T02:51:58.133Z,4.30
2019-03-26T02:54:28.181Z,2.63
2019-03-26T02:57:00.797Z,2.97
2019-03-26T02:59:31.417Z,2.63
2019-03-26T03:02:03.285Z,4.03
2019-03-26T03:04:33.049Z,2.73
2019-03-26T03:07:03.503Z,3.07
2019-03-26T03:09:33.591Z,2.63
2019-03-26T03:12:03.344Z,2.83
2019-03-26T03:14:33.523Z,3.17
2019-03-26T03:17:03.607Z,3.30
2019-03-26T03:19:35.435Z,2.40
2019-03-26T03:22:05.353Z,3.00
2019-03-26T03:24:35.378Z,3.30
2019-03-26T03:27:05.113Z,2.80
2019-03-26T03:29:35.299Z,3.50
2019-03-26T03:32:06.448Z,2.77
2019-03-26T03:34:36.376Z,3.10
2019-03-26T03:37:06.067Z,2.92
2019-03-26T03:39:36.164Z,3.90
2019-03-26T03:42:06.088Z,3.47
2019-03-26T03:44:36.533Z,3.23
2019-03-26T03:47:06.794Z,3.80
2019-03-26T03:49:36.501Z,3.33
2019-03-26T03:52:06.768Z,3.17
2019-03-26T03:54:37.922Z,3.30
2019-03-26T03:57:07.826Z,2.90
2019-03-26T03:59:38.277Z,3.40
2019-03-26T04:02:08.020Z,2.57
2019-03-26T04:04:38.418Z,3.17
2019-03-26T04:07:08.550Z,2.50
2019-03-26T04:09:38.273Z,2.60
2019-03-26T04:12:08.403Z,5.07
2019-03-26T04:14:38.497Z,2.93
2019-03-26T04:17:08.251Z,3.50
2019-03-26T04:19:38.429Z,2.87
2019-03-26T04:22:08.251Z,3.45
2019-03-26T04:24:38.417Z,3.57
2019-03-26T04:27:08.246Z,3.12
2019-03-26T04:29:38.027Z,4.27
2019-03-26T04:32:07.791Z,3.53
2019-03-26T04:34:37.490Z,3.17
2019-03-26T04:37:07.293Z,4.30
2019-03-26T04:39:37.033Z,2.63
2019-03-26T04:42:07.184Z,3.13
2019-03-26T04:44:37.825Z,3.30
2019-03-26T04:47:07.558Z,2.60
2019-03-26T04:49:37.578Z,2.90
2019-03-26T04:52:07.310Z,3.40
2019-03-26T04:54:36.999Z,2.93
2019-03-26T04:57:06.956Z,2.97
2019-03-26T04:59:36.951Z,3.73
2019-03-26T05:02:07.022Z,3.60
2019-03-26T05:04:36.812Z,4.30
2019-03-26T05:07:06.849Z,3.33
2019-03-26T05:09:36.617Z,3.60
2019-03-26T05:12:06.560Z,4.20
2019-03-26T05:14:36.430Z,3.53
2019-03-26T05:17:06.119Z,3.40
2019-03-26T05:19:36.099Z,4.33
2019-03-26T05:22:06.254Z,2.80
2019-03-26T05:24:36.495Z,3.63
2019-03-26T05:27:07.558Z,4.17
2019-03-26T05:29:37.271Z,3.67
2019-03-26T05:32:06.981Z,2.97
2019-03-26T05:34:36.891Z,2.90
2019-03-26T05:37:06.610Z,2.97
2019-03-26T05:39:37.150Z,3.00
2019-03-26T05:42:06.881Z,3.30
2019-03-26T05:44:36.772Z,3.03
2019-03-26T05:47:06.845Z,3.30
2019-03-26T05:49:36.573Z,3.00
2019-03-26T05:52:06.643Z,3.60
2019-03-26T05:54:36.400Z,3.20
2019-03-26T05:57:06.612Z,2.55
2019-03-26T05:59:36.311Z,4.13
2019-03-26T06:02:14.291Z,5.43
2019-03-26T06:04:38.285Z,2.97
2019-03-26T06:07:07.985Z,3.40
2019-03-26T06:09:38.139Z,3.03
2019-03-26T06:12:07.831Z,3.90
2019-03-26T06:14:37.607Z,2.63
2019-03-26T06:17:07.354Z,2.53
2019-03-26T06:19:37.061Z,3.30
2019-03-26T06:22:06.812Z,2.87
2019-03-26T06:24:36.814Z,2.67
2019-03-26T06:27:06.575Z,1.40
2019-03-26T06:29:36.294Z,2.60
2019-03-26T06:32:06.026Z,3.20
2019-03-26T06:34:36.577Z,2.20
2019-03-26T06:37:17.677Z,3.80
2019-03-26T06:39:41.811Z,2.63
2019-03-26T06:42:11.541Z,2.13
2019-03-26T06:44:41.277Z,2.57
2019-03-26T06:47:11.021Z,2.20
2019-03-26T06:49:41.150Z,2.60
2019-03-26T06:52:10.892Z,2.30
2019-03-26T06:54:40.600Z,2.63
2019-03-26T06:57:10.966Z,2.17
2019-03-26T06:59:40.694Z,2.60
2019-03-26T07:02:10.451Z,2.30
2019-03-26T07:04:46.870Z,2.67
2019-03-26T07:07:30.540Z,2.70
2019-03-26T07:09:48.727Z,2.43
2019-03-26T07:12:18.449Z,3.03
2019-03-26T07:14:48.519Z,3.00
2019-03-26T07:17:18.388Z,1.67
2019-03-26T07:19:49.110Z,2.50
2019-03-26T07:22:20.030Z,3.93
2019-03-26T07:24:50.648Z,2.10
2019-03-26T07:27:20.372Z,2.17
2019-03-26T07:29:50.082Z,2.10
2019-03-26T07:32:19.864Z,1.80
2019-03-26T07:34:49.604Z,2.37
2019-03-26T07:37:19.597Z,2.17
2019-03-26T07:39:49.512Z,3.80
2019-03-26T07:42:19.252Z,2.40
2019-03-26T07:44:48.979Z,1.70
2019-03-26T07:47:18.733Z,2.80
2019-03-26T07:49:48.449Z,3.17
2019-03-26T07:52:18.170Z,2.47
2019-03-26T07:54:49.382Z,2.87
2019-03-26T07:57:19.106Z,2.83
2019-03-26T07:59:49.390Z,4.27
2019-03-26T08:02:19.095Z,3.90
2019-03-26T08:04:49.232Z,2.43
2019-03-26T08:07:18.979Z,2.53
2019-03-26T08:09:48.743Z,2.50
2019-03-26T08:12:19.577Z,3.93
2019-03-26T08:14:49.715Z,3.90
2019-03-26T08:17:19.456Z,3.23
2019-03-26T08:19:49.147Z,2.77
2019-03-26T08:22:19.291Z,2.10
2019-03-26T08:24:49.189Z,2.40
2019-03-26T08:27:18.898Z,3.13
2019-03-26T08:29:48.644Z,2.67
2019-03-26T08:32:18.381Z,3.13
2019-03-26T08:34:48.121Z,2.70
2019-03-26T08:37:17.963Z,2.03
2019-03-26T08:39:47.700Z,3.60
2019-03-26T08:42:17.755Z,3.20
2019-03-26T08:44:47.500Z,2.20
2019-03-26T08:47:17.995Z,2.90
2019-03-26T08:49:47.763Z,3.40
2019-03-26T08:52:17.961Z,2.70
2019-03-26T08:54:48.064Z,3.33
2019-03-26T08:57:17.796Z,2.43
2019-03-26T08:59:48.825Z,3.10
2019-03-26T09:02:18.791Z,2.63
2019-03-26T09:04:48.946Z,2.63
2019-03-26T09:07:19.141Z,3.40
2019-03-26T09:09:48.912Z,2.53
2019-03-26T09:12:18.974Z,2.47
2019-03-26T09:14:48.708Z,2.90
2019-03-26T09:17:19.975Z,2.67
2019-03-26T09:19:51.011Z,1.87
2019-03-26T09:22:22.631Z,1.90
2019-03-26T09:24:52.394Z,2.40
2019-03-26T09:27:22.452Z,2.20
2019-03-26T09:29:52.198Z,2.60
2019-03-26T09:32:24.572Z,3.17
2019-03-26T09:34:54.678Z,3.07
2019-03-26T09:37:24.379Z,2.97
2019-03-26T09:39:54.071Z,2.33
2019-03-26T09:42:23.991Z,4.10
2019-03-26T09:44:56.585Z,4.97
2019-03-26T09:47:25.614Z,1.50
2019-03-26T09:49:55.690Z,3.20
2019-03-26T09:52:25.422Z,3.17
2019-03-26T09:54:55.290Z,2.13
2019-03-26T09:57:26.198Z,2.40
2019-03-26T09:59:56.344Z,3.57
2019-03-26T10:02:26.064Z,3.30
2019-03-26T10:04:57.324Z,3.23
2019-03-26T10:07:27.221Z,3.87
2019-03-26T10:09:58.805Z,3.33
2019-03-26T10:12:28.967Z,3.20
2019-03-26T10:15:00.018Z,2.77
2019-03-26T10:17:29.773Z,4.70
2019-03-26T10:19:59.606Z,3.30
2019-03-26T10:22:29.329Z,1.63
2019-03-26T10:24:59.458Z,3.23
2019-03-26T10:27:29.873Z,3.17
2019-03-26T10:30:00.000Z,2.77
2019-03-26T10:32:30.422Z,3.20
2019-03-26T10:35:00.427Z,4.60
2019-03-26T10:37:30.340Z,3.00
2019-03-26T10:40:00.376Z,3.07
2019-03-26T10:42:30.076Z,3.00
2019-03-26T10:45:00.329Z,3.30
2019-03-26T10:47:31.551Z,4.37
2019-03-26T10:50:01.310Z,4.57
2019-03-26T10:52:34.398Z,4.03
2019-03-26T10:55:03.939Z,3.33
2019-03-26T10:57:33.678Z,3.90
2019-03-26T11:00:04.363Z,3.30
2019-03-26T11:02:34.087Z,3.30
2019-03-26T11:05:03.826Z,3.90
2019-03-26T11:07:35.860Z,4.20
2019-03-26T11:10:05.901Z,4.30
2019-03-26T11:12:35.678Z,4.03
2019-03-26T11:15:06.796Z,2.80
2019-03-26T11:17:36.741Z,2.97
2019-03-26T11:20:08.115Z,3.90
2019-03-26T11:22:37.821Z,4.23
2019-03-26T11:25:08.059Z,3.17
2019-03-26T11:27:37.845Z,2.00
2019-03-26T11:30:08.462Z,3.07
2019-03-26T11:32:38.749Z,2.40
2019-03-26T11:35:09.805Z,2.65
2019-03-26T11:37:39.679Z,1.87
2019-03-26T11:40:11.017Z,2.60
2019-03-26T11:42:41.090Z,2.50
2019-03-26T11:45:11.048Z,3.03
2019-03-26T11:47:41.288Z,3.13
2019-03-26T11:50:12.153Z,2.93
2019-03-26T11:52:41.959Z,2.70
2019-03-26T11:55:12.430Z,2.60
2019-03-26T11:57:42.119Z,2.10
2019-03-26T12:00:13.095Z,3.73
2019-03-26T12:02:44.633Z,2.43
2019-03-26T12:05:15.272Z,3.13
2019-03-26T12:07:45.877Z,3.00
2019-03-26T12:10:16.071Z,3.57
2019-03-26T12:12:45.792Z,2.50
2019-03-26T12:15:16.045Z,3.60
2019-03-26T12:17:46.287Z,2.20
2019-03-26T12:20:16.108Z,3.20
2019-03-26T12:22:46.193Z,2.40
2019-03-26T12:25:16.031Z,2.77
2019-03-26T12:27:46.128Z,2.50
2019-03-26T12:30:20.058Z,2.00
2019-03-26T12:32:49.816Z,2.90
2019-03-26T12:35:29.541Z,2.77
2019-03-26T12:37:59.689Z,4.70
2019-03-26T12:40:30.112Z,2.30
2019-03-26T12:42:59.901Z,5.70
2019-03-26T12:45:29.613Z,3.20
2019-03-26T12:47:59.448Z,2.50
2019-03-26T12:50:32.056Z,3.40
2019-03-26T12:53:01.758Z,2.60
2019-03-26T12:55:31.453Z,4.23
2019-03-26T12:58:01.202Z,3.57
2019-03-26T13:00:33.864Z,3.70
2019-03-26T13:03:03.649Z,3.50
2019-03-26T13:05:34.088Z,2.83
2019-03-26T13:08:05.330Z,2.67
2019-03-26T13:10:35.270Z,2.30
2019-03-26T13:13:05.389Z,1.60
2019-03-26T13:15:36.580Z,2.43
2019-03-26T13:18:07.041Z,2.40
2019-03-26T13:20:36.786Z,3.07
2019-03-26T13:23:09.194Z,2.10
2019-03-26T13:25:41.128Z,2.67
2019-03-26T13:28:10.846Z,3.27
2019-03-26T13:30:40.675Z,2.40
2019-03-26T13:33:10.806Z,2.20
2019-03-26T13:35:40.510Z,3.00
2019-03-26T13:38:10.292Z,2.50
2019-03-26T13:40:40.589Z,1.90
2019-03-26T13:43:10.857Z,2.63
2019-03-26T13:45:40.572Z,2.43
2019-03-26T13:48:11.439Z,2.80
2019-03-26T13:50:41.174Z,3.27
2019-03-26T13:53:10.899Z,2.70
2019-03-26T13:55:40.705Z,2.07
2019-03-26T13:58:10.439Z,2.73
2019-03-26T14:00:41.068Z,2.13
2019-03-26T14:03:10.781Z,3.13
2019-03-26T14:05:40.505Z,2.60
2019-03-26T14:08:10.345Z,2.90
2019-03-26T14:10:41.613Z,2.08
2019-03-26T14:13:11.507Z,3.00
2019-03-26T14:15:41.367Z,2.60
2019-03-26T14:18:11.128Z,2.90
2019-03-26T14:20:41.081Z,2.70
2019-03-26T14:23:10.782Z,2.60
2019-03-26T14:25:40.836Z,2.70
2019-03-26T14:28:10.745Z,3.40
2019-03-26T14:30:42.486Z,2.67
2019-03-26T14:33:12.233Z,2.40
2019-03-26T14:35:43.475Z,4.03
2019-03-26T14:38:13.592Z,3.50
2019-03-26T14:40:54.125Z,2.97
2019-03-26T14:43:14.819Z,2.53
2019-03-26T14:45:44.525Z,3.10
2019-03-26T14:48:14.255Z,1.90
2019-03-26T14:50:44.285Z,3.30
2019-03-26T14:53:14.957Z,3.37
2019-03-26T14:55:44.754Z,3.20
2019-03-26T14:58:14.736Z,2.67
2019-03-26T15:00:44.448Z,2.17
2019-03-26T15:03:14.156Z,3.03
2019-03-26T15:05:44.052Z,2.30
2019-03-26T15:08:15.048Z,3.77
2019-03-26T15:10:45.164Z,3.27
2019-03-26T15:13:14.875Z,3.40
2019-03-26T15:15:44.629Z,3.97
2019-03-26T15:18:14.685Z,4.37
2019-03-26T15:20:45.857Z,4.97
2019-03-26T15:23:15.874Z,3.30
2019-03-26T15:25:45.624Z,3.33
2019-03-26T15:28:15.952Z,5.50
2019-03-26T15:30:45.644Z,3.07
2019-03-26T15:33:15.637Z,3.73
2019-03-26T15:35:45.364Z,5.30
2019-03-26T15:38:15.066Z,3.13
2019-03-26T15:40:45.157Z,4.27
2019-03-26T15:43:14.950Z,2.93
2019-03-26T15:45:44.722Z,6.43
2019-03-26T15:48:14.695Z,4.63
2019-03-26T15:50:46.223Z,4.90
2019-03-26T15:53:16.451Z,4.87
2019-03-26T15:55:47.379Z,5.70
2019-03-26T15:58:17.185Z,3.93
2019-03-26T16:00:48.598Z,4.60
2019-03-26T16:03:22.270Z,6.37
2019-03-26T16:05:50.871Z,4.30
2019-03-26T16:08:21.125Z,5.60
2019-03-26T16:10:51.455Z,11.73
2019-03-26T16:13:21.595Z,5.03
2019-03-26T16:15:51.958Z,7.80
2019-03-26T16:18:21.891Z,10.13
2019-03-26T16:20:52.418Z,8.03
2019-03-26T16:23:22.738Z,6.03
2019-03-26T16:25:52.441Z,4.90
2019-03-26T16:28:22.210Z,9.37
2019-03-26T16:30:52.307Z,7.00
2019-03-26T16:33:23.510Z,3.53
2019-03-26T16:35:54.067Z,5.07
2019-03-26T16:38:23.784Z,9.10
2019-03-26T16:40:53.509Z,7.23
2019-03-26T16:43:24.931Z,5.20
2019-03-26T16:45:54.785Z,5.80
2019-03-26T16:48:24.871Z,3.43
2019-03-26T16:50:55.095Z,4.93
2019-03-26T16:53:25.229Z,4.60
2019-03-26T16:55:55.363Z,3.60
2019-03-26T16:58:26.727Z,3.63
2019-03-26T17:00:56.516Z,4.07
2019-03-26T17:03:31.569Z,2.90
2019-03-26T17:05:58.680Z,3.72
2019-03-26T17:08:28.830Z,5.00
2019-03-26T17:10:58.607Z,5.23
2019-03-26T17:13:28.322Z,4.20
2019-03-26T17:15:58.365Z,3.90
2019-03-26T17:18:28.102Z,3.63
2019-03-26T17:20:58.075Z,3.90
2019-03-26T17:23:27.802Z,3.60
2019-03-26T17:25:57.505Z,5.60
2019-03-26T17:28:27.508Z,4.03
2019-03-26T17:30:57.530Z,2.30
2019-03-26T17:33:29.016Z,4.20
2019-03-26T17:35:59.542Z,4.30
2019-03-26T17:38:29.535Z,3.20
2019-03-26T17:40:59.420Z,5.30
2019-03-26T17:43:29.873Z,3.73
2019-03-26T17:45:59.626Z,3.10
2019-03-26T17:48:29.332Z,3.80
2019-03-26T17:50:59.076Z,3.60
2019-03-26T17:53:28.874Z,3.37
2019-03-26T17:55:58.575Z,2.87
2019-03-26T17:58:28.666Z,3.43
2019-03-26T18:00:58.997Z,2.53
2019-03-26T18:03:29.112Z,2.93
2019-03-26T18:05:59.187Z,4.37
2019-03-26T18:08:28.953Z,4.27
2019-03-26T18:10:58.659Z,3.90
2019-03-26T18:13:28.424Z,4.00
2019-03-26T18:15:58.266Z,3.75
2019-03-26T18:18:28.307Z,3.57
2019-03-26T18:20:58.344Z,3.00
2019-03-26T18:23:28.717Z,3.70
2019-03-26T18:25:58.881Z,3.30
2019-03-26T18:28:29.305Z,3.43
2019-03-26T18:30:59.105Z,4.43
2019-03-26T18:33:28.852Z,5.53
2019-03-26T18:35:59.026Z,3.47
2019-03-26T18:38:29.565Z,3.80
2019-03-26T18:40:59.450Z,4.30
2019-03-26T18:43:29.129Z,3.30
2019-03-26T18:46:03.706Z,3.40
2019-03-26T18:48:33.487Z,3.43
2019-03-26T18:51:03.210Z,3.30
2019-03-26T18:53:33.390Z,5.63
2019-03-26T18:56:03.167Z,3.60
2019-03-26T18:58:33.191Z,3.40
2019-03-26T19:01:03.537Z,4.87
2019-03-26T19:03:33.251Z,3.60
2019-03-26T19:06:02.927Z,3.40
2019-03-26T19:08:32.769Z,3.87
2019-03-26T19:11:02.800Z,3.40
2019-03-26T19:13:32.955Z,3.63
2019-03-26T19:16:02.921Z,3.70
2019-03-26T19:18:32.799Z,4.10
2019-03-26T19:21:03.003Z,3.63
2019-03-26T19:23:32.995Z,4.53
2019-03-26T19:26:02.886Z,4.40
2019-03-26T19:28:32.611Z,4.03
2019-03-26T19:31:02.814Z,4.10
2019-03-26T19:33:32.916Z,4.17
2019-03-26T19:36:03.279Z,4.27
2019-03-26T19:38:34.052Z,5.17
2019-03-26T19:41:04.348Z,4.20
2019-03-26T19:43:34.144Z,5.43
2019-03-26T19:46:04.721Z,5.10
2019-03-26T19:48:34.879Z,6.67
2019-03-26T19:51:04.970Z,5.13
2019-03-26T19:53:34.716Z,4.67
2019-03-26T19:56:04.980Z,4.27
2019-03-26T19:58:35.195Z,6.73
2019-03-26T20:01:05.617Z,5.97
2019-03-26T20:03:35.317Z,6.23
2019-03-26T20:06:13.467Z,5.20
2019-03-26T20:08:36.815Z,5.10
2019-03-26T20:11:06.502Z,5.93
2019-03-26T20:13:38.062Z,6.33
2019-03-26T20:16:08.548Z,6.67
2019-03-26T20:18:38.292Z,7.97
2019-03-26T20:21:08.082Z,6.10
2019-03-26T20:23:37.759Z,7.10
2019-03-26T20:26:07.742Z,6.17
2019-03-26T20:28:37.742Z,7.60
2019-03-26T20:31:07.473Z,6.80
2019-03-26T20:33:37.183Z,6.67
2019-03-26T20:36:07.331Z,8.50
2019-03-26T20:38:37.054Z,8.27
2019-03-26T20:41:06.884Z,8.03
2019-03-26T20:43:37.768Z,9.07
2019-03-26T20:46:07.976Z,7.93
2019-03-26T20:48:37.691Z,8.47
2019-03-26T20:51:07.399Z,7.93
2019-03-26T20:53:37.084Z,9.10
2019-03-26T20:56:06.972Z,7.87
2019-03-26T20:58:37.353Z,9.00
2019-03-26T21:01:07.063Z,9.57
2019-03-26T21:03:36.820Z,7.73
2019-03-26T21:06:06.502Z,8.33
2019-03-26T21:08:36.366Z,8.43
2019-03-26T21:11:06.052Z,9.18
2019-03-26T21:13:36.194Z,9.23
2019-03-26T21:16:05.895Z,9.20
2019-03-26T21:18:35.562Z,8.30
2019-03-26T21:21:05.777Z,8.97
2019-03-26T21:23:35.811Z,9.33
2019-03-26T21:26:05.841Z,8.30
2019-03-26T21:28:35.850Z,11.00
2019-03-26T21:31:05.627Z,9.50
2019-03-26T21:33:35.359Z,9.23
2019-03-26T21:36:05.657Z,9.58
2019-03-26T21:38:35.389Z,11.00
2019-03-26T21:41:05.074Z,12.50
2019-03-26T21:43:35.149Z,11.97
2019-03-26T21:46:04.865Z,11.17
2019-03-26T21:48:34.952Z,11.23
2019-03-26T21:51:05.071Z,12.67
2019-03-26T21:53:35.007Z,11.60
2019-03-26T21:56:06.844Z,11.87
2019-03-26T21:58:37.007Z,11.60
2019-03-26T22:01:06.740Z,10.30
2019-03-26T22:03:37.111Z,11.40
2019-03-26T22:06:06.878Z,12.50
2019-03-26T22:08:36.544Z,14.00
2019-03-26T22:11:06.557Z,13.27
2019-03-26T22:13:36.325Z,13.83
2019-03-26T22:16:06.388Z,13.43
2019-03-26T22:18:36.161Z,12.60
2019-03-26T22:21:06.319Z,13.87
2019-03-26T22:23:36.004Z,15.23
2019-03-26T22:26:05.897Z,13.20
2019-03-26T22:28:35.611Z,13.40
2019-03-26T22:31:05.956Z,14.23
2019-03-26T22:33:36.019Z,13.33
2019-03-26T22:36:06.071Z,14.13
2019-03-26T22:38:35.809Z,13.90
2019-03-26T22:41:05.540Z,15.10
2019-03-26T22:43:35.700Z,13.70
2019-03-26T22:46:05.443Z,15.63
2019-03-26T22:48:35.130Z,15.33
2019-03-26T22:51:05.229Z,16.03
2019-03-26T22:53:34.953Z,15.00
2019-03-26T22:56:04.666Z,14.60
2019-03-26T22:58:34.375Z,12.97
2019-03-26T23:01:05.300Z,14.40
2019-03-26T23:03:35.551Z,15.70
2019-03-26T23:06:05.308Z,15.40
2019-03-26T23:08:35.332Z,15.90
2019-03-26T23:11:05.279Z,17.10
2019-03-26T23:13:35.005Z,16.10
2019-03-26T23:16:04.944Z,15.30
2019-03-26T23:18:35.034Z,18.07
2019-03-26T23:21:05.148Z,16.03
2019-03-26T23:23:35.101Z,14.93
2019-03-26T23:26:04.914Z,15.47
2019-03-26T23:28:35.016Z,15.97
2019-03-26T23:31:04.722Z,15.83
2019-03-26T23:33:34.785Z,15.47
2019-03-26T23:36:04.684Z,15.40
2019-03-26T23:38:34.779Z,15.07
2019-03-26T23:41:04.846Z,15.83
2019-03-26T23:43:35.289Z,15.77
2019-03-26T23:46:04.997Z,16.53
2019-03-26T23:48:34.921Z,17.57
2019-03-26T23:51:05.170Z,17.10
2019-03-26T23:53:35.345Z,16.10
2019-03-26T23:56:05.281Z,17.65
2019-03-26T23:58:35.286Z,16.27
